Time;durP1;ratioP1;P1;durP2;ratioP2;P2;SDS_P1;SDS_P2;PMS_P1;PMS_P2;Temp;Humidity;BMP_temperature;BMP_pressure;BME280_temperature;BME280_humidity;BME280_pressure;Samples;Min_cycle;Max_cycle;Signal;HPM_P1;HPM_P2
2021/09/20 00:01:18;;;;;;;9.07;5.63;;;;;;;;;;5041227;28;20045;-66
2021/09/20 00:03:44;;;;;;;9.40;5.40;;;;;;;;;;5042705;28;20044;-66
2021/09/20 00:06:11;;;;;;;9.50;5.00;;;;;;;;;;5041337;28;20132;-66
2021/09/20 00:08:37;;;;;;;10.98;4.95;;;;;;;;;;5041711;28;20057;-66
2021/09/20 00:11:03;;;;;;;9.45;5.55;;;;;;;;;;5058176;28;20078;-65
2021/09/20 00:13:30;;;;;;;8.00;4.85;;;;;;;;;;5044147;28;20052;-65
2021/09/20 00:15:56;;;;;;;14.45;5.85;;;;;;;;;;5059278;28;20122;-65
2021/09/20 00:18:22;;;;;;;8.32;5.15;;;;;;;;;;5058905;28;20416;-65
2021/09/20 00:20:48;;;;;;;10.60;5.22;;;;;;;;;;5060554;28;20106;-66
2021/09/20 00:23:14;;;;;;;7.93;4.68;;;;;;;;;;5041552;28;20052;-66
2021/09/20 00:25:40;;;;;;;12.68;5.82;;;;;;;;;;5056106;28;20044;-66
2021/09/20 00:28:07;;;;;;;8.27;4.75;;;;;;;;;;5039196;28;20554;-66
2021/09/20 00:30:33;;;;;;;9.90;4.72;;;;;;;;;;5060806;28;20475;-66
2021/09/20 00:32:59;;;;;;;12.02;5.43;;;;;;;;;;5042232;28;20130;-66
2021/09/20 00:35:25;;;;;;;10.18;5.22;;;;;;;;;;5043465;28;20059;-66
2021/09/20 00:37:51;;;;;;;10.52;5.80;;;;;;;;;;5057834;28;20044;-66
2021/09/20 00:40:18;;;;;;;10.55;5.50;;;;;;;;;;5055023;28;20055;-66
2021/09/20 00:42:44;;;;;;;10.95;5.45;;;;;;;;;;5057706;28;20037;-65
2021/09/20 00:45:10;;;;;;;8.68;4.88;;;;;;;;;;5056412;28;20055;-66
2021/09/20 00:47:37;;;;;;;9.98;4.97;;;;;;;;;;5040491;28;20055;-66
2021/09/20 00:50:03;;;;;;;9.15;5.20;;;;;;;;;;5042315;28;20123;-66
2021/09/20 00:52:29;;;;;;;10.93;5.28;;;;;;;;;;5060126;28;20509;-65
2021/09/20 00:54:55;;;;;;;10.43;5.55;;;;;;;;;;5061810;28;20036;-66
2021/09/20 00:57:22;;;;;;;8.88;4.80;;;;;;;;;;5058911;28;20492;-66
2021/09/20 00:59:48;;;;;;;12.95;5.05;;;;;;;;;;5059268;28;20053;-66
2021/09/20 01:02:14;;;;;;;7.82;5.20;;;;;;;;;;5056586;28;20045;-66
2021/09/20 01:04:40;;;;;;;9.85;5.05;;;;;;;;;;5055870;28;20118;-66
2021/09/20 01:07:06;;;;;;;9.68;4.82;;;;;;;;;;5058882;28;20051;-66
2021/09/20 01:09:36;;;;;;;9.02;4.85;;;;;;;;;;5040142;28;20055;-65
2021/09/20 01:12:03;;;;;;;10.13;5.20;;;;;;;;;;5056451;28;20128;-66
2021/09/20 01:14:29;;;;;;;9.93;5.03;;;;;;;;;;5041753;28;20048;-66
2021/09/20 01:16:55;;;;;;;9.40;5.55;;;;;;;;;;5044816;28;20080;-65
2021/09/20 01:19:21;;;;;;;8.10;5.10;;;;;;;;;;5022832;28;20167;-65
2021/09/20 01:21:48;;;;;;;8.63;5.22;;;;;;;;;;5041478;28;20095;-66
2021/09/20 01:24:14;;;;;;;10.02;5.53;;;;;;;;;;5042462;28;20136;-65
2021/09/20 01:26:41;;;;;;;10.93;6.13;;;;;;;;;;5037794;28;20125;-65
2021/09/20 01:29:07;;;;;;;8.88;6.03;;;;;;;;;;5046975;28;20059;-66
2021/09/20 01:31:33;;;;;;;8.20;5.72;;;;;;;;;;5055731;28;20047;-65
2021/09/20 01:34:00;;;;;;;13.38;5.72;;;;;;;;;;5057642;28;20124;-65
2021/09/20 01:36:26;;;;;;;11.93;5.95;;;;;;;;;;5042599;28;20056;-65
2021/09/20 01:38:52;;;;;;;11.30;6.38;;;;;;;;;;5057392;28;20404;-65
2021/09/20 01:41:18;;;;;;;10.95;5.88;;;;;;;;;;5061769;28;20124;-65
2021/09/20 01:43:45;;;;;;;10.82;6.55;;;;;;;;;;5043493;28;20103;-65
2021/09/20 01:46:11;;;;;;;9.93;5.88;;;;;;;;;;5060863;28;20047;-65
2021/09/20 01:48:37;;;;;;;13.05;6.85;;;;;;;;;;5045591;28;20414;-65
2021/09/20 01:51:03;;;;;;;11.77;6.47;;;;;;;;;;5063347;28;20085;-65
2021/09/20 01:53:29;;;;;;;12.93;5.95;;;;;;;;;;5064034;28;20049;-65
2021/09/20 01:55:55;;;;;;;11.93;6.65;;;;;;;;;;5039435;28;20040;-65
2021/09/20 01:58:22;;;;;;;9.43;5.97;;;;;;;;;;5043666;28;20048;-65
2021/09/20 02:00:48;;;;;;;10.30;6.35;;;;;;;;;;5050198;28;20065;-65
2021/09/20 02:03:14;;;;;;;12.73;6.32;;;;;;;;;;5058952;28;20762;-65
2021/09/20 02:05:41;;;;;;;12.25;7.13;;;;;;;;;;5062685;28;20040;-66
2021/09/20 02:08:07;;;;;;;10.57;7.03;;;;;;;;;;5046722;28;20123;-65
2021/09/20 02:10:33;;;;;;;12.75;6.63;;;;;;;;;;5040030;28;20040;-65
2021/09/20 02:12:59;;;;;;;18.45;7.32;;;;;;;;;;5045928;28;20143;-66
2021/09/20 02:15:25;;;;;;;62.30;8.68;;;;;;;;;;5046882;28;20547;-65
2021/09/20 02:17:52;;;;;;;10.60;6.70;;;;;;;;;;5042463;28;20083;-65
2021/09/20 02:20:18;;;;;;;10.70;6.50;;;;;;;;;;5056176;28;20044;-65
2021/09/20 02:22:44;;;;;;;10.45;6.70;;;;;;;;;;5060659;28;20056;-65
2021/09/20 02:25:10;;;;;;;12.23;7.57;;;;;;;;;;5058681;28;20680;-65
2021/09/20 02:27:37;;;;;;;10.15;6.95;;;;;;;;;;5062518;28;20080;-66
2021/09/20 02:30:05;;;;;;;11.70;7.38;;;;;;;;;;5058203;28;20106;-66
2021/09/20 02:32:33;;;;;;;10.77;6.75;;;;;;;;;;5062628;28;20047;-65
2021/09/20 02:34:59;;;;;;;9.80;6.80;;;;;;;;;;5039555;28;20127;-65
2021/09/20 02:37:26;;;;;;;10.80;7.05;;;;;;;;;;5061302;28;20049;-65
2021/09/20 02:39:52;;;;;;;13.63;7.90;;;;;;;;;;5064245;28;20052;-66
2021/09/20 02:42:18;;;;;;;13.40;7.95;;;;;;;;;;5046191;28;20533;-65
2021/09/20 02:44:44;;;;;;;13.52;7.50;;;;;;;;;;5046418;28;20493;-66
2021/09/20 02:47:11;;;;;;;13.27;7.10;;;;;;;;;;5042155;28;20067;-66
2021/09/20 02:49:38;;;;;;;11.30;7.22;;;;;;;;;;5057602;28;20044;-65
2021/09/20 02:52:04;;;;;;;18.65;8.77;;;;;;;;;;5042260;28;20623;-66
2021/09/20 02:54:30;;;;;;;17.23;8.85;;;;;;;;;;5057404;28;20199;-66
2021/09/20 02:56:57;;;;;;;13.00;8.18;;;;;;;;;;5047839;28;20094;-66
2021/09/20 02:59:23;;;;;;;13.55;7.75;;;;;;;;;;5064261;28;20048;-66
2021/09/20 03:01:49;;;;;;;10.88;7.82;;;;;;;;;;5043683;28;20052;-65
2021/09/20 03:04:15;;;;;;;14.38;8.23;;;;;;;;;;5046474;28;20075;-65
2021/09/20 03:06:41;;;;;;;12.75;8.18;;;;;;;;;;5054360;28;20072;-65
2021/09/20 03:09:08;;;;;;;14.35;8.00;;;;;;;;;;5058961;28;20369;-65
2021/09/20 03:11:34;;;;;;;9.98;6.68;;;;;;;;;;5056389;28;20140;-65
2021/09/20 03:14:00;;;;;;;14.10;7.88;;;;;;;;;;5061625;28;20037;-66
2021/09/20 03:16:26;;;;;;;15.25;7.35;;;;;;;;;;5045462;28;20457;-65
2021/09/20 03:18:52;;;;;;;13.13;8.27;;;;;;;;;;5043156;28;20076;-65
2021/09/20 03:21:21;;;;;;;15.20;7.75;;;;;;;;;;5043346;28;20090;-65
2021/09/20 03:23:47;;;;;;;11.75;7.45;;;;;;;;;;5046047;28;20124;-65
2021/09/20 03:26:13;;;;;;;12.63;8.02;;;;;;;;;;5062667;28;20438;-65
2021/09/20 03:28:40;;;;;;;12.35;7.50;;;;;;;;;;5042076;28;20048;-65
2021/09/20 03:31:06;;;;;;;11.18;7.28;;;;;;;;;;5060268;28;20175;-65
2021/09/20 03:33:32;;;;;;;12.10;7.82;;;;;;;;;;5058596;28;20396;-65
2021/09/20 03:35:58;;;;;;;12.48;7.53;;;;;;;;;;5055998;28;20121;-65
2021/09/20 03:38:25;;;;;;;12.02;7.90;;;;;;;;;;5045382;28;20103;-65
2021/09/20 03:40:51;;;;;;;16.73;8.15;;;;;;;;;;5055760;28;20407;-65
2021/09/20 03:43:17;;;;;;;13.63;8.15;;;;;;;;;;5061568;28;20041;-65
2021/09/20 03:45:43;;;;;;;12.98;7.68;;;;;;;;;;5026774;28;20072;-65
2021/09/20 03:48:09;;;;;;;13.65;7.82;;;;;;;;;;5040403;28;20121;-65
2021/09/20 03:50:36;;;;;;;14.15;8.35;;;;;;;;;;5060226;28;20048;-65
2021/09/20 03:53:02;;;;;;;13.73;7.80;;;;;;;;;;5063997;28;20438;-65
2021/09/20 03:55:28;;;;;;;16.25;9.27;;;;;;;;;;5045238;28;20094;-65
2021/09/20 03:57:54;;;;;;;18.75;8.23;;;;;;;;;;5056717;28;20068;-65
2021/09/20 04:00:20;;;;;;;14.05;7.90;;;;;;;;;;5057819;28;20044;-65
2021/09/20 04:02:47;;;;;;;10.55;6.90;;;;;;;;;;5059081;28;20072;-65
2021/09/20 04:05:13;;;;;;;15.23;8.73;;;;;;;;;;5042697;28;20119;-65
2021/09/20 04:07:41;;;;;;;14.70;7.38;;;;;;;;;;5043858;28;20044;-65
2021/09/20 04:10:08;;;;;;;16.50;8.68;;;;;;;;;;5039015;28;20373;-65
2021/09/20 04:12:34;;;;;;;11.32;7.35;;;;;;;;;;5041550;28;20059;-65
2021/09/20 04:15:00;;;;;;;11.77;7.57;;;;;;;;;;5046319;28;20040;-65
2021/09/20 04:17:26;;;;;;;12.25;8.18;;;;;;;;;;5038562;28;20498;-66
2021/09/20 04:19:52;;;;;;;11.10;7.72;;;;;;;;;;5043408;28;20045;-66
2021/09/20 04:22:19;;;;;;;13.02;8.45;;;;;;;;;;5037388;28;20511;-65
2021/09/20 04:24:45;;;;;;;13.40;7.93;;;;;;;;;;5055397;28;20469;-65
2021/09/20 04:27:11;;;;;;;13.52;8.23;;;;;;;;;;5057598;28;20344;-65
2021/09/20 04:29:38;;;;;;;16.08;9.30;;;;;;;;;;5056107;28;20072;-65
2021/09/20 04:32:05;;;;;;;14.40;8.43;;;;;;;;;;5054887;28;20094;-66
2021/09/20 04:34:31;;;;;;;14.88;8.52;;;;;;;;;;5058357;28;20047;-65
2021/09/20 04:36:57;;;;;;;14.57;7.93;;;;;;;;;;5056515;28;20076;-65
2021/09/20 04:39:23;;;;;;;20.05;9.18;;;;;;;;;;5057347;28;20053;-65
2021/09/20 04:41:49;;;;;;;13.38;7.95;;;;;;;;;;5059676;28;20395;-65
2021/09/20 04:44:16;;;;;;;15.00;9.13;;;;;;;;;;5059170;28;20075;-65
2021/09/20 04:46:42;;;;;;;11.63;8.50;;;;;;;;;;5059427;28;20060;-65
2021/09/20 04:49:08;;;;;;;13.77;8.15;;;;;;;;;;5060661;28;20044;-65
2021/09/20 04:51:34;;;;;;;15.32;9.20;;;;;;;;;;5059114;28;20074;-65
2021/09/20 04:54:00;;;;;;;15.60;9.20;;;;;;;;;;5054254;28;20128;-65
2021/09/20 04:56:27;;;;;;;16.80;8.90;;;;;;;;;;5041389;28;20041;-65
2021/09/20 04:58:53;;;;;;;14.43;8.60;;;;;;;;;;5040783;28;20048;-65
2021/09/20 05:01:19;;;;;;;14.77;8.75;;;;;;;;;;5041414;28;20068;-65
2021/09/20 05:03:45;;;;;;;15.75;8.85;;;;;;;;;;5040772;28;20514;-65
2021/09/20 05:06:11;;;;;;;11.63;7.82;;;;;;;;;;5037223;28;20140;-65
2021/09/20 05:08:38;;;;;;;13.50;8.35;;;;;;;;;;5038130;28;20109;-66
2021/09/20 05:11:04;;;;;;;15.63;8.63;;;;;;;;;;5058898;28;20160;-65
2021/09/20 05:13:30;;;;;;;12.20;8.15;;;;;;;;;;5044467;28;20443;-65
2021/09/20 05:15:56;;;;;;;14.75;9.02;;;;;;;;;;5038047;28;20037;-65
2021/09/20 05:18:22;;;;;;;15.32;8.90;;;;;;;;;;5050943;28;20048;-65
2021/09/20 05:20:48;;;;;;;16.88;9.05;;;;;;;;;;5062185;28;20052;-65
2021/09/20 05:23:15;;;;;;;14.00;8.60;;;;;;;;;;5066342;28;20044;-65
2021/09/20 05:25:41;;;;;;;14.45;9.00;;;;;;;;;;5063163;28;20416;-66
2021/09/20 05:28:07;;;;;;;15.80;9.50;;;;;;;;;;5061383;28;20124;-66
2021/09/20 05:30:34;;;;;;;11.13;7.88;;;;;;;;;;5044164;28;20084;-65
2021/09/20 05:33:00;;;;;;;12.48;8.35;;;;;;;;;;5053783;28;20048;-65
2021/09/20 05:35:26;;;;;;;15.40;9.18;;;;;;;;;;5043355;28;20131;-65
2021/09/20 05:37:53;;;;;;;14.82;9.00;;;;;;;;;;5057608;28;20466;-65
2021/09/20 05:40:19;;;;;;;15.50;9.18;;;;;;;;;;5042480;28;20537;-66
2021/09/20 05:42:46;;;;;;;12.45;9.07;;;;;;;;;;5040268;28;20049;-65
2021/09/20 05:45:13;;;;;;;12.60;8.60;;;;;;;;;;5063278;28;20037;-65
2021/09/20 05:47:39;;;;;;;13.52;8.30;;;;;;;;;;5061927;28;20060;-65
2021/09/20 05:50:06;;;;;;;17.73;9.00;;;;;;;;;;5043407;28;20044;-65
2021/09/20 05:52:32;;;;;;;14.75;9.50;;;;;;;;;;5043474;28;20114;-65
2021/09/20 05:54:58;;;;;;;16.02;8.77;;;;;;;;;;5061471;28;20044;-65
2021/09/20 05:57:24;;;;;;;16.42;8.90;;;;;;;;;;5060060;28;20044;-77
2021/09/20 05:59:51;;;;;;;18.15;10.02;;;;;;;;;;5045339;28;20114;-65
2021/09/20 06:02:17;;;;;;;12.52;8.45;;;;;;;;;;5061642;28;20322;-65
2021/09/20 06:04:44;;;;;;;12.27;8.63;;;;;;;;;;5044884;28;20443;-64
2021/09/20 06:07:10;;;;;;;14.40;8.73;;;;;;;;;;5065477;28;20097;-64
2021/09/20 06:09:36;;;;;;;16.60;9.20;;;;;;;;;;5059110;28;20091;-65
2021/09/20 06:12:03;;;;;;;14.27;8.30;;;;;;;;;;5062117;28;20384;-64
2021/09/20 06:14:30;;;;;;;15.38;9.27;;;;;;;;;;5058776;28;20052;-65
2021/09/20 06:16:56;;;;;;;16.20;9.52;;;;;;;;;;5059050;28;20037;-65
2021/09/20 06:19:22;;;;;;;13.40;8.30;;;;;;;;;;5061864;28;21430;-65
2021/09/20 06:21:50;;;;;;;14.00;8.48;;;;;;;;;;5044793;28;20501;-65
2021/09/20 06:24:16;;;;;;;13.98;8.02;;;;;;;;;;5041046;28;20488;-64
2021/09/20 06:26:42;;;;;;;13.95;8.05;;;;;;;;;;5060684;28;20032;-65
2021/09/20 06:29:10;;;;;;;11.32;8.20;;;;;;;;;;5059166;28;20049;-64
2021/09/20 06:31:36;;;;;;;13.65;8.80;;;;;;;;;;5041839;28;20105;-65
2021/09/20 06:34:02;;;;;;;14.63;8.48;;;;;;;;;;5055772;28;21362;-65
2021/09/20 06:36:29;;;;;;;11.52;7.38;;;;;;;;;;5042804;28;20045;-64
2021/09/20 06:38:57;;;;;;;14.02;8.95;;;;;;;;;;5041678;28;20051;-65
2021/09/20 06:41:24;;;;;;;16.92;8.75;;;;;;;;;;5059377;28;20080;-65
2021/09/20 06:43:51;;;;;;;12.68;8.35;;;;;;;;;;5059022;28;20084;-65
2021/09/20 06:46:17;;;;;;;11.95;8.35;;;;;;;;;;5043563;28;20143;-64
2021/09/20 06:48:43;;;;;;;12.68;8.05;;;;;;;;;;5044604;28;20123;-65
2021/09/20 06:51:09;;;;;;;11.90;8.07;;;;;;;;;;5042789;28;20131;-65
2021/09/20 06:53:36;;;;;;;12.80;7.75;;;;;;;;;;5043470;28;20395;-65
2021/09/20 06:56:02;;;;;;;13.63;8.00;;;;;;;;;;5026372;28;20098;-65
2021/09/20 06:58:29;;;;;;;12.18;8.35;;;;;;;;;;5041494;28;20552;-64
2021/09/20 07:00:55;;;;;;;11.90;7.85;;;;;;;;;;5039174;28;20035;-64
2021/09/20 07:03:21;;;;;;;15.50;8.15;;;;;;;;;;5041409;28;20535;-64
2021/09/20 07:05:47;;;;;;;13.35;8.40;;;;;;;;;;5060526;28;20115;-64
2021/09/20 07:08:14;;;;;;;12.82;7.97;;;;;;;;;;5045307;28;20443;-64
2021/09/20 07:10:40;;;;;;;11.63;7.68;;;;;;;;;;5058855;28;20065;-65
2021/09/20 07:13:09;;;;;;;13.27;7.97;;;;;;;;;;5063652;28;20044;-65
2021/09/20 07:15:36;;;;;;;13.88;7.65;;;;;;;;;;5044896;28;20053;-65
2021/09/20 07:18:03;;;;;;;10.48;7.88;;;;;;;;;;5065145;28;20338;-65
2021/09/20 07:20:29;;;;;;;13.35;8.13;;;;;;;;;;5062802;28;20145;-64
2021/09/20 07:22:55;;;;;;;11.00;7.57;;;;;;;;;;5045738;28;20072;-65
2021/09/20 07:25:21;;;;;;;13.30;7.63;;;;;;;;;;5047008;28;20369;-65
2021/09/20 07:27:47;;;;;;;13.95;7.88;;;;;;;;;;5049945;28;20511;-65
2021/09/20 07:30:17;;;;;;;14.98;7.65;;;;;;;;;;5065352;28;20392;-65
2021/09/20 07:32:44;;;;;;;13.23;8.48;;;;;;;;;;5042763;28;20319;-65
2021/09/20 07:35:10;;;;;;;10.85;7.10;;;;;;;;;;5044366;28;20041;-65
2021/09/20 07:37:37;;;;;;;13.05;7.70;;;;;;;;;;5065743;28;20079;-65
2021/09/20 07:40:04;;;;;;;13.18;7.22;;;;;;;;;;5043126;28;20261;-64
2021/09/20 07:42:30;;;;;;;15.50;8.00;;;;;;;;;;5064367;28;20037;-64
2021/09/20 07:44:56;;;;;;;13.13;7.43;;;;;;;;;;5068401;28;20040;-65
2021/09/20 07:47:22;;;;;;;11.23;7.60;;;;;;;;;;5047559;28;20037;-65
2021/09/20 07:49:48;;;;;;;11.65;7.07;;;;;;;;;;5047004;28;20043;-65
2021/09/20 07:52:15;;;;;;;11.88;7.72;;;;;;;;;;5039408;28;20090;-65
2021/09/20 07:54:41;;;;;;;10.35;6.55;;;;;;;;;;5067379;28;20047;-65
2021/09/20 07:57:08;;;;;;;14.40;6.88;;;;;;;;;;5051366;28;20063;-65
2021/09/20 07:59:35;;;;;;;12.38;7.38;;;;;;;;;;5065655;28;20154;-65
2021/09/20 08:02:01;;;;;;;15.27;7.13;;;;;;;;;;5044655;28;20160;-64
2021/09/20 08:04:28;;;;;;;12.23;6.30;;;;;;;;;;5062310;28;20395;-65
2021/09/20 08:06:54;;;;;;;12.30;5.95;;;;;;;;;;5047116;28;20109;-65
2021/09/20 08:09:21;;;;;;;10.13;6.47;;;;;;;;;;5043258;28;20386;-65
2021/09/20 08:11:47;;;;;;;11.77;7.45;;;;;;;;;;5028426;28;20052;-65
2021/09/20 08:14:13;;;;;;;15.65;7.25;;;;;;;;;;5048251;28;20128;-65
2021/09/20 08:16:39;;;;;;;10.45;6.55;;;;;;;;;;5063849;28;20044;-64
2021/09/20 08:19:05;;;;;;;10.07;6.90;;;;;;;;;;5062697;28;20083;-65
2021/09/20 08:21:32;;;;;;;9.23;6.35;;;;;;;;;;5063110;28;20487;-66
2021/09/20 08:23:58;;;;;;;12.75;6.90;;;;;;;;;;5041825;28;20495;-65
2021/09/20 08:26:24;;;;;;;9.20;5.85;;;;;;;;;;5059399;28;20049;-64
2021/09/20 08:28:50;;;;;;;13.48;6.65;;;;;;;;;;5058174;28;20105;-65
2021/09/20 08:31:17;;;;;;;10.82;6.93;;;;;;;;;;5039994;28;20495;-64
2021/09/20 08:33:43;;;;;;;11.30;6.55;;;;;;;;;;5058476;28;20093;-64
2021/09/20 08:36:11;;;;;;;10.48;6.97;;;;;;;;;;5038766;28;20052;-65
2021/09/20 08:38:37;;;;;;;12.15;7.32;;;;;;;;;;5061433;28;20488;-65
2021/09/20 08:41:03;;;;;;;10.05;6.35;;;;;;;;;;5044229;28;20053;-65
2021/09/20 08:43:30;;;;;;;10.80;6.60;;;;;;;;;;5040246;28;20055;-64
2021/09/20 08:45:58;;;;;;;12.70;6.63;;;;;;;;;;5061678;28;20040;-65
2021/09/20 08:48:27;;;;;;;14.23;7.53;;;;;;;;;;5063439;28;20048;-65
2021/09/20 08:50:53;;;;;;;11.25;6.78;;;;;;;;;;5060261;28;20045;-65
2021/09/20 08:53:19;;;;;;;10.10;5.85;;;;;;;;;;5061618;28;20037;-65
2021/09/20 08:55:46;;;;;;;18.05;7.15;;;;;;;;;;5061079;28;20036;-65
2021/09/20 08:58:13;;;;;;;10.43;6.85;;;;;;;;;;5045398;28;20048;-65
2021/09/20 09:00:39;;;;;;;12.40;7.53;;;;;;;;;;5062090;28;20036;-65
2021/09/20 09:03:05;;;;;;;9.43;6.65;;;;;;;;;;5061047;28;20438;-65
2021/09/20 09:05:33;;;;;;;10.57;6.85;;;;;;;;;;5041880;28;20419;-65
2021/09/20 09:08:00;;;;;;;11.05;6.20;;;;;;;;;;5055439;28;20425;-65
2021/09/20 09:10:28;;;;;;;12.63;6.95;;;;;;;;;;5060245;28;20036;-65
2021/09/20 09:12:55;;;;;;;9.82;6.22;;;;;;;;;;5039394;28;20050;-65
2021/09/20 09:15:22;;;;;;;8.85;6.20;;;;;;;;;;5060137;28;20704;-66
2021/09/20 09:17:50;;;;;;;14.40;6.20;;;;;;;;;;5039500;28;20099;-64
2021/09/20 09:20:17;;;;;;;10.43;6.13;;;;;;;;;;5062408;28;20053;-64
2021/09/20 09:22:47;;;;;;;10.70;6.72;;;;;;;;;;5059912;28;20033;-64
2021/09/20 09:25:21;;;;;;;11.88;6.00;;;;;;;;;;5065423;28;20037;-64
2021/09/20 09:27:48;;;;;;;7.75;5.15;;;;;;;;;;5039876;28;20049;-64
2021/09/20 09:30:17;;;;;;;8.95;5.00;;;;;;;;;;5058611;28;20075;-64
2021/09/20 09:32:44;;;;;;;8.52;5.10;;;;;;;;;;5056281;28;20135;-64
2021/09/20 09:35:12;;;;;;;8.00;4.68;;;;;;;;;;5020166;28;20399;-64
2021/09/20 09:37:39;;;;;;;8.35;4.80;;;;;;;;;;5053624;28;20052;-64
2021/09/20 09:40:06;;;;;;;13.23;4.63;;;;;;;;;;5044535;28;20540;-64
2021/09/20 09:42:32;;;;;;;10.52;4.25;;;;;;;;;;5054562;28;20511;-64
2021/09/20 09:45:12;;;;;;;7.00;4.47;;;;;;;;;;5044665;28;20037;-64
2021/09/20 09:47:38;;;;;;;7.57;5.03;;;;;;;;;;5060600;28;20418;-64
2021/09/20 09:50:16;;;;;;;6.93;4.25;;;;;;;;;;5043695;28;20373;-64
2021/09/20 09:52:43;;;;;;;9.48;4.00;;;;;;;;;;5056447;28;20048;-65
2021/09/20 09:55:10;;;;;;;7.70;3.90;;;;;;;;;;5060067;28;20072;-65
2021/09/20 09:57:36;;;;;;;8.10;3.95;;;;;;;;;;5057914;28;20033;-65
2021/09/20 10:00:09;;;;;;;8.95;4.13;;;;;;;;;;5040532;28;20112;-72
2021/09/20 10:02:36;;;;;;;7.28;4.22;;;;;;;;;;5042085;28;20041;-65
2021/09/20 10:05:06;;;;;;;8.85;3.80;;;;;;;;;;5063897;28;20414;-65
2021/09/20 10:07:34;;;;;;;6.97;3.92;;;;;;;;;;5040544;28;20052;-64
2021/09/20 10:10:02;;;;;;;6.40;4.00;;;;;;;;;;5044827;28;20140;-65
2021/09/20 10:12:29;;;;;;;9.70;5.05;;;;;;;;;;5059189;28;20041;-65
2021/09/20 10:14:56;;;;;;;6.22;4.10;;;;;;;;;;5038985;28;20056;-65
2021/09/20 10:17:23;;;;;;;9.80;4.63;;;;;;;;;;5062568;28;20425;-65
2021/09/20 10:19:50;;;;;;;9.35;4.75;;;;;;;;;;5045245;28;20060;-65
2021/09/20 10:22:17;;;;;;;9.30;4.20;;;;;;;;;;5066315;28;20044;-65
2021/09/20 10:24:44;;;;;;;6.30;3.72;;;;;;;;;;5039859;28;20193;-64
2021/09/20 10:27:12;;;;;;;7.13;3.88;;;;;;;;;;5039979;28;20396;-64
2021/09/20 10:29:40;;;;;;;9.65;3.90;;;;;;;;;;5043889;28;20160;-64
2021/09/20 10:32:06;;;;;;;8.10;4.30;;;;;;;;;;5061684;28;20041;-64
2021/09/20 10:34:32;;;;;;;8.40;3.78;;;;;;;;;;5063628;28;20048;-64
2021/09/20 10:37:01;;;;;;;8.10;3.20;;;;;;;;;;5039445;28;20056;-64
2021/09/20 10:39:46;;;;;;;5.65;2.90;;;;;;;;;;5060808;28;20037;-65
2021/09/20 10:42:31;;;;;;;4.63;2.50;;;;;;;;;;5049205;28;20048;-65
2021/09/20 10:44:57;;;;;;;7.82;3.20;;;;;;;;;;5039096;28;20044;-65
2021/09/20 10:47:24;;;;;;;7.22;3.25;;;;;;;;;;5061300;28;20053;-64
2021/09/20 10:49:50;;;;;;;6.68;2.50;;;;;;;;;;5060247;28;20044;-64
2021/09/20 10:52:17;;;;;;;13.20;3.25;;;;;;;;;;5057681;28;20044;-64
2021/09/20 10:55:02;;;;;;;10.43;3.25;;;;;;;;;;5063159;28;20040;-64
2021/09/20 10:57:28;;;;;;;6.47;3.22;;;;;;;;;;5029510;28;20123;-64
2021/09/20 11:00:14;;;;;;;7.72;3.30;;;;;;;;;;5057345;28;20036;-64
2021/09/20 11:02:40;;;;;;;5.88;2.38;;;;;;;;;;5060158;28;20444;-64
2021/09/20 11:05:07;;;;;;;4.68;2.67;;;;;;;;;;5059007;28;20040;-64
2021/09/20 11:07:47;;;;;;;6.30;2.80;;;;;;;;;;5062448;28;20403;-64
2021/09/20 11:10:13;;;;;;;5.95;2.53;;;;;;;;;;5058870;28;20044;-65
2021/09/20 11:12:56;;;;;;;5.88;2.45;;;;;;;;;;5059853;28;20084;-65
2021/09/20 11:15:23;;;;;;;6.40;2.35;;;;;;;;;;5041513;28;20045;-64
2021/09/20 11:17:50;;;;;;;4.80;2.33;;;;;;;;;;5061342;28;20488;-65
2021/09/20 11:20:22;;;;;;;3.60;1.85;;;;;;;;;;5057662;28;20516;-65
2021/09/20 11:22:48;;;;;;;5.07;1.90;;;;;;;;;;5045202;28;20053;-65
2021/09/20 11:25:16;;;;;;;6.60;2.30;;;;;;;;;;5044503;28;20080;-65
2021/09/20 11:27:44;;;;;;;4.65;2.08;;;;;;;;;;5059823;28;20536;-65
2021/09/20 11:30:12;;;;;;;7.25;2.35;;;;;;;;;;5041947;28;20057;-66
2021/09/20 11:32:43;;;;;;;5.05;2.00;;;;;;;;;;5057940;28;20471;-66
2021/09/20 11:35:10;;;;;;;7.03;1.95;;;;;;;;;;5060253;28;20036;-66
2021/09/20 11:37:36;;;;;;;4.45;1.90;;;;;;;;;;5061209;28;20052;-66
2021/09/20 11:40:05;;;;;;;7.72;2.35;;;;;;;;;;5040161;28;20183;-66
2021/09/20 11:42:37;;;;;;;4.82;2.10;;;;;;;;;;5064520;28;20049;-66
2021/09/20 11:45:05;;;;;;;4.82;1.90;;;;;;;;;;5059022;28;20869;-66
2021/09/20 11:47:35;;;;;;;3.53;1.60;;;;;;;;;;5042719;28;20478;-65
2021/09/20 11:50:03;;;;;;;5.47;1.60;;;;;;;;;;5055896;28;20467;-66
2021/09/20 11:52:32;;;;;;;4.90;1.48;;;;;;;;;;5039532;28;20106;-66
2021/09/20 11:54:58;;;;;;;5.38;1.70;;;;;;;;;;5060875;28;20048;-66
2021/09/20 11:57:25;;;;;;;3.50;1.65;;;;;;;;;;5060652;28;20506;-66
2021/09/20 11:59:56;;;;;;;3.42;1.48;;;;;;;;;;5045684;28;20429;-66
2021/09/20 12:02:27;;;;;;;6.18;1.40;;;;;;;;;;5060234;28;20039;-66
2021/09/20 12:04:53;;;;;;;3.45;1.50;;;;;;;;;;5064647;28;20043;-66
2021/09/20 12:07:27;;;;;;;3.22;1.20;;;;;;;;;;5042819;28;20041;-66
2021/09/20 12:09:54;;;;;;;4.07;1.70;;;;;;;;;;5058673;28;20068;-66
2021/09/20 12:12:21;;;;;;;4.28;1.35;;;;;;;;;;5037069;28;20083;-66
2021/09/20 12:14:55;;;;;;;3.33;1.65;;;;;;;;;;5057666;28;20587;-66
2021/09/20 12:17:21;;;;;;;5.55;1.70;;;;;;;;;;5042475;28;20127;-66
2021/09/20 12:19:53;;;;;;;3.83;1.52;;;;;;;;;;5044111;28;20358;-66
2021/09/20 12:22:19;;;;;;;4.13;1.85;;;;;;;;;;5060436;28;20044;-66
2021/09/20 12:24:46;;;;;;;4.72;1.60;;;;;;;;;;5047303;28;20127;-66
2021/09/20 12:27:12;;;;;;;4.47;1.48;;;;;;;;;;5044241;28;20093;-66
2021/09/20 12:29:38;;;;;;;5.13;1.20;;;;;;;;;;5059941;28;20098;-66
2021/09/20 12:32:05;;;;;;;5.68;1.35;;;;;;;;;;5059097;28;20041;-66
2021/09/20 12:34:34;;;;;;;2.83;1.17;;;;;;;;;;5058782;28;20051;-66
2021/09/20 12:37:03;;;;;;;4.43;1.50;;;;;;;;;;5038425;28;20063;-66
2021/09/20 12:39:32;;;;;;;3.72;1.25;;;;;;;;;;5044591;28;20103;-66
2021/09/20 12:42:02;;;;;;;5.03;1.38;;;;;;;;;;5042449;28;20098;-66
2021/09/20 12:44:30;;;;;;;3.28;1.30;;;;;;;;;;5055277;28;20124;-66
2021/09/20 12:47:02;;;;;;;3.53;1.30;;;;;;;;;;5057550;28;20106;-66
2021/09/20 12:49:28;;;;;;;3.75;1.20;;;;;;;;;;5038701;28;20093;-66
2021/09/20 12:51:54;;;;;;;3.55;1.40;;;;;;;;;;5057063;28;20178;-67
2021/09/20 12:54:22;;;;;;;3.60;1.38;;;;;;;;;;5043096;28;20041;-66
2021/09/20 12:56:49;;;;;;;5.93;1.55;;;;;;;;;;5059416;28;20086;-67
2021/09/20 12:59:18;;;;;;;6.00;1.40;;;;;;;;;;5058797;28;20036;-67
2021/09/20 13:01:47;;;;;;;3.22;1.40;;;;;;;;;;5042006;28;20063;-66
2021/09/20 13:04:22;;;;;;;4.85;1.33;;;;;;;;;;5038405;28;20484;-66
2021/09/20 13:06:59;;;;;;;2.80;1.20;;;;;;;;;;5056810;28;20463;-67
2021/09/20 13:09:26;;;;;;;3.95;1.30;;;;;;;;;;5038952;28;20141;-66
2021/09/20 13:11:52;;;;;;;3.30;1.15;;;;;;;;;;5059235;28;20048;-66
2021/09/20 13:14:19;;;;;;;3.25;1.00;;;;;;;;;;5059651;28;20455;-66
2021/09/20 13:16:45;;;;;;;9.15;1.40;;;;;;;;;;5057019;28;20537;-66
2021/09/20 13:19:12;;;;;;;3.30;1.45;;;;;;;;;;5040662;28;20040;-66
2021/09/20 13:21:38;;;;;;;3.20;1.15;;;;;;;;;;5057819;28;20064;-66
2021/09/20 13:24:05;;;;;;;4.43;1.20;;;;;;;;;;5039690;28;20044;-66
2021/09/20 13:26:32;;;;;;;2.38;1.10;;;;;;;;;;5024053;28;20194;-66
2021/09/20 13:29:00;;;;;;;3.17;1.10;;;;;;;;;;5053637;28;20439;-66
2021/09/20 13:31:29;;;;;;;3.22;1.20;;;;;;;;;;5043778;28;20083;-66
2021/09/20 13:33:56;;;;;;;4.35;1.70;;;;;;;;;;5053597;28;20044;-66
2021/09/20 13:36:22;;;;;;;4.57;1.08;;;;;;;;;;5036385;28;20053;-66
2021/09/20 13:38:49;;;;;;;4.30;1.20;;;;;;;;;;5062879;28;20047;-66
2021/09/20 13:41:16;;;;;;;9.45;1.40;;;;;;;;;;5042119;28;20141;-66
2021/09/20 13:43:44;;;;;;;8.82;1.60;;;;;;;;;;5060924;28;20079;-66
2021/09/20 13:46:12;;;;;;;7.05;1.80;;;;;;;;;;5040436;28;20915;-66
2021/09/20 13:48:39;;;;;;;3.60;1.40;;;;;;;;;;5064035;28;20036;-66
2021/09/20 13:51:05;;;;;;;2.80;1.33;;;;;;;;;;5041716;28;20048;-66
2021/09/20 13:53:31;;;;;;;3.67;1.67;;;;;;;;;;5040108;28;20481;-66
2021/09/20 13:55:57;;;;;;;4.60;1.92;;;;;;;;;;5058957;28;20535;-66
2021/09/20 13:58:24;;;;;;;3.90;1.42;;;;;;;;;;5045914;28;20029;-65
2021/09/20 14:00:50;;;;;;;4.05;1.52;;;;;;;;;;5042861;28;20105;-66
2021/09/20 14:03:17;;;;;;;5.25;1.45;;;;;;;;;;5061564;28;20051;-66
2021/09/20 14:05:44;;;;;;;8.23;2.17;;;;;;;;;;5063853;28;20063;-66
2021/09/20 14:08:12;;;;;;;12.32;1.67;;;;;;;;;;5065371;28;20033;-66
2021/09/20 14:10:38;;;;;;;7.57;1.70;;;;;;;;;;5065325;28;20095;-66
2021/09/20 14:13:05;;;;;;;3.50;1.45;;;;;;;;;;5067956;28;20037;-66
2021/09/20 14:15:31;;;;;;;3.35;1.17;;;;;;;;;;5060765;28;20143;-66
2021/09/20 14:17:58;;;;;;;5.10;1.60;;;;;;;;;;5042881;28;20036;-66
2021/09/20 14:20:25;;;;;;;5.05;1.95;;;;;;;;;;5050550;28;20055;-66
2021/09/20 14:22:53;;;;;;;3.65;1.38;;;;;;;;;;5059557;28;20108;-66
2021/09/20 14:25:20;;;;;;;4.80;1.48;;;;;;;;;;5044577;28;20534;-66
2021/09/20 14:27:47;;;;;;;5.70;1.55;;;;;;;;;;5045097;28;20055;-66
2021/09/20 14:30:15;;;;;;;9.10;1.85;;;;;;;;;;5064622;28;20527;-66
2021/09/20 14:32:41;;;;;;;5.18;1.98;;;;;;;;;;5048428;28;20098;-66
2021/09/20 14:35:08;;;;;;;5.03;1.80;;;;;;;;;;5044836;28;20055;-66